Millers Tavern, Virginia
Current Conditions -  °F | °C
As of 1:55 PM on Friday 31 Oct 2014 (Local Time) from KXSA Reporting Station
Overcast Overcast  
Wind Chill: 57°   Ceiling: 4900
Heat Index: 57°   Visibility: 10mi
Dew Point: 32°   Wind: 0mph
Humidity: 39%   Direction: NA
Pressure: 29.9"   Gusts: NA
Location:  37.83°N, 76.95°W
Report Text: KXSA 311755Z AUTO 00000KT 10SM OVC049 14/00 A2990 RMK AO2 T01410002 10152 20042
Loading
Personal Weather Stations






























Interactive Weather Map
Tropical Storm Tracking
New forecast layout! Learn more

10-Day Weather Forecast

Advertisements
Track Severe Weather on mobile